Time;durP1;ratioP1;P1;durP2;ratioP2;P2;SDS_P1;SDS_P2;PMS_P1;PMS_P2;Temp;Humidity;BMP_temperature;BMP_pressure;BME280_temperature;BME280_humidity;BME280_pressure;Samples;Min_cycle;Max_cycle;Signal;HPM_P1;HPM_P2
2023/10/22 00:02:15;;;;;;;7.00;3.40;;;9.80;1.00;;;;;;5051697;28;20174;-63
2023/10/22 00:04:41;;;;;;;8.00;3.17;;;9.80;1.00;;;;;;5039964;28;20819;-63
2023/10/22 00:07:07;;;;;;;7.00;3.20;;;9.80;1.00;;;;;;5033430;28;20603;-63
2023/10/22 00:09:33;;;;;;;3.93;3.13;;;9.80;1.00;;;;;;5033960;28;20164;-63
2023/10/22 00:11:59;;;;;;;3.30;3.00;;;9.80;1.00;;;;;;5033847;28;20377;-63
2023/10/22 00:14:25;;;;;;;4.30;3.80;;;9.80;1.00;;;;;;5031909;28;20409;-63
2023/10/22 00:16:51;;;;;;;3.47;2.93;;;9.80;1.00;;;;;;5032912;28;20505;-63
2023/10/22 00:19:17;;;;;;;3.67;2.87;;;9.80;1.00;;;;;;5033783;28;20956;-63
2023/10/22 00:21:42;;;;;;;3.40;3.07;;;9.80;1.00;;;;;;5032742;28;20168;-63
2023/10/22 00:24:08;;;;;;;4.80;3.07;;;9.80;1.00;;;;;;5042271;28;20198;-63
2023/10/22 00:26:34;;;;;;;3.60;3.27;;;9.70;1.00;;;;;;5051470;28;20276;-63
2023/10/22 00:29:00;;;;;;;3.50;3.20;;;9.70;1.00;;;;;;5053428;28;20430;-63
2023/10/22 00:31:26;;;;;;;3.20;2.90;;;9.70;1.00;;;;;;5052329;28;20183;-63
2023/10/22 00:33:52;;;;;;;6.00;2.90;;;9.70;1.00;;;;;;5052474;28;20418;-63
2023/10/22 00:36:18;;;;;;;5.40;3.30;;;9.80;1.00;;;;;;5052233;28;20198;-63
2023/10/22 00:38:43;;;;;;;3.23;3.03;;;9.70;1.00;;;;;;5053291;28;20179;-65
2023/10/22 00:41:09;;;;;;;2.90;2.70;;;9.70;1.00;;;;;;5053034;28;20375;-63
2023/10/22 00:43:35;;;;;;;3.37;2.70;;;9.70;1.00;;;;;;5050810;28;20214;-63
2023/10/22 00:46:02;;;;;;;5.30;3.40;;;9.70;1.00;;;;;;5052417;28;20217;-63
2023/10/22 00:48:29;;;;;;;3.80;3.07;;;9.60;1.00;;;;;;5053259;28;20480;-63
2023/10/22 00:50:56;;;;;;;4.43;2.77;;;9.60;1.00;;;;;;5052834;28;20444;-63
2023/10/22 00:53:23;;;;;;;2.97;2.77;;;9.60;1.00;;;;;;5051083;28;20388;-63
2023/10/22 00:55:50;;;;;;;3.13;2.93;;;9.60;1.00;;;;;;5052035;28;20495;-63
2023/10/22 00:58:17;;;;;;;3.33;3.03;;;9.60;1.00;;;;;;5053090;28;20394;-63
2023/10/22 01:00:44;;;;;;;3.40;3.10;;;9.60;1.00;;;;;;5052987;28;20393;-66
2023/10/22 01:03:09;;;;;;;3.13;2.93;;;9.50;1.00;;;;;;5052107;28;20372;-65
2023/10/22 01:05:39;;;;;;;2.80;2.60;;;9.50;1.00;;;;;;5051875;28;20902;-64
2023/10/22 01:08:05;;;;;;;3.40;3.10;;;9.50;1.00;;;;;;5051800;28;20601;-67
2023/10/22 01:10:32;;;;;;;3.57;2.90;;;9.50;1.00;;;;;;5052885;28;20380;-63
2023/10/22 01:12:58;;;;;;;3.30;3.00;;;9.50;1.00;;;;;;5054240;28;20532;-66
2023/10/22 01:15:24;;;;;;;4.20;3.20;;;9.40;1.00;;;;;;5053909;28;20442;-63
2023/10/22 01:17:50;;;;;;;3.30;3.10;;;9.50;1.00;;;;;;5056970;28;20421;-63
2023/10/22 01:20:16;;;;;;;3.80;3.00;;;9.50;1.00;;;;;;5056826;28;20619;-63
2023/10/22 01:22:41;;;;;;;3.40;3.10;;;9.50;1.00;;;;;;5056759;28;20631;-63
2023/10/22 01:25:07;;;;;;;3.90;3.60;;;9.50;1.00;;;;;;5039400;28;20264;-67
2023/10/22 01:27:34;;;;;;;3.60;3.30;;;9.50;1.00;;;;;;5036697;28;20228;-63
2023/10/22 01:29:59;;;;;;;8.90;3.30;;;9.50;1.00;;;;;;5036571;28;20779;-63
2023/10/22 01:32:30;;;;;;;3.57;3.27;;;9.50;1.00;;;;;;5036707;28;20409;-63
2023/10/22 01:35:02;;;;;;;2.97;2.67;;;9.50;1.00;;;;;;5035438;28;20199;-63
2023/10/22 01:37:27;;;;;;;3.37;3.07;;;9.50;1.00;;;;;;5036613;28;20946;-63
2023/10/22 01:39:54;;;;;;;7.00;3.53;;;9.50;1.00;;;;;;5036428;28;20380;-63
2023/10/22 01:42:20;;;;;;;2.87;2.67;;;9.50;1.00;;;;;;5036681;28;20166;-63
2023/10/22 01:44:46;;;;;;;3.20;2.87;;;9.50;1.00;;;;;;5042685;28;20411;-63
2023/10/22 01:47:12;;;;;;;3.50;3.03;;;9.50;1.00;;;;;;5056298;28;20924;-63
2023/10/22 01:49:38;;;;;;;3.57;3.27;;;9.60;1.00;;;;;;5056124;28;20383;-63
2023/10/22 01:52:04;;;;;;;6.53;3.10;;;9.60;1.00;;;;;;5056361;28;20643;-63
2023/10/22 01:54:30;;;;;;;4.17;3.13;;;9.60;1.00;;;;;;5053681;28;20429;-74
2023/10/22 01:56:55;;;;;;;4.33;3.00;;;9.60;1.00;;;;;;5054444;28;20430;-65
2023/10/22 01:59:21;;;;;;;3.23;3.03;;;9.60;1.00;;;;;;5052707;28;20171;-63
2023/10/22 02:01:47;;;;;;;3.00;2.80;;;9.50;1.00;;;;;;5055942;28;20167;-64
2023/10/22 02:04:12;;;;;;;4.97;3.10;;;9.60;1.00;;;;;;5052051;28;20183;-63
2023/10/22 02:06:38;;;;;;;4.37;2.63;;;9.60;1.00;;;;;;5038112;28;20210;-65
2023/10/22 02:09:04;;;;;;;3.80;2.87;;;9.60;1.00;;;;;;5049271;28;20184;-63
2023/10/22 02:11:30;;;;;;;4.00;2.93;;;9.60;1.00;;;;;;5033868;28;20215;-64
2023/10/22 02:13:56;;;;;;;4.40;3.13;;;9.60;1.00;;;;;;5034927;28;20681;-63
2023/10/22 02:16:23;;;;;;;5.00;3.37;;;9.60;1.00;;;;;;5032429;28;20454;-63
2023/10/22 02:18:49;;;;;;;2.67;2.47;;;9.60;1.00;;;;;;5034275;28;20369;-63
2023/10/22 02:21:15;;;;;;;4.03;3.07;;;9.60;1.00;;;;;;5054552;28;20758;-64
2023/10/22 02:23:41;;;;;;;2.57;2.37;;;9.60;1.00;;;;;;5053605;28;20167;-65
2023/10/22 02:26:07;;;;;;;2.80;2.60;;;9.50;1.00;;;;;;5053549;28;20427;-63
2023/10/22 02:28:33;;;;;;;4.40;2.63;;;9.60;1.00;;;;;;5053237;28;20566;-63
2023/10/22 02:30:59;;;;;;;4.97;2.80;;;9.60;1.00;;;;;;5053556;28;20425;-63
2023/10/22 02:33:25;;;;;;;2.93;2.60;;;9.50;1.00;;;;;;5054576;28;20254;-63
2023/10/22 02:35:51;;;;;;;5.90;3.10;;;9.50;1.00;;;;;;5053081;28;20643;-63
2023/10/22 02:38:18;;;;;;;3.30;3.00;;;9.50;1.00;;;;;;5054345;28;20551;-64
2023/10/22 02:40:48;;;;;;;2.50;2.30;;;9.50;1.00;;;;;;5053671;28;20760;-64
2023/10/22 02:43:14;;;;;;;2.73;2.53;;;9.50;1.00;;;;;;5054342;28;20401;-65
2023/10/22 02:45:50;;;;;;;5.30;2.77;;;9.50;1.00;;;;;;5053132;28;20406;-67
2023/10/22 02:48:15;;;;;;;3.90;2.60;;;9.50;1.00;;;;;;5054211;28;20433;-63
2023/10/22 02:50:41;;;;;;;5.23;3.70;;;9.50;1.00;;;;;;5053308;28;20896;-63
2023/10/22 02:53:07;;;;;;;4.40;2.60;;;9.40;1.00;;;;;;5054179;28;20623;-63
2023/10/22 02:55:32;;;;;;;3.30;2.67;;;9.40;99.90;;;;;;5052822;28;20209;-63
2023/10/22 02:57:58;;;;;;;2.97;2.77;;;9.40;99.90;;;;;;5052602;28;20266;-64
2023/10/22 03:00:24;;;;;;;3.07;2.77;;;9.30;99.90;;;;;;5051902;28;20175;-63
2023/10/22 03:02:49;;;;;;;3.77;2.23;;;9.40;99.90;;;;;;5053910;28;20171;-63
2023/10/22 03:05:15;;;;;;;2.97;2.77;;;9.30;99.90;;;;;;4998776;28;1561217;-67
2023/10/22 03:07:41;;;;;;;2.93;2.60;;;9.30;99.90;;;;;;5054810;28;20195;-63
2023/10/22 03:10:09;;;;;;;2.50;2.30;;;9.30;99.90;;;;;;5044573;28;20187;-63
2023/10/22 03:12:35;;;;;;;2.33;2.20;;;9.20;99.90;;;;;;5034942;28;20291;-63
2023/10/22 03:15:01;;;;;;;2.73;2.53;;;9.10;99.90;;;;;;5032615;28;20507;-63
2023/10/22 03:17:27;;;;;;;2.70;2.50;;;9.20;99.90;;;;;;5034757;28;21013;-63
2023/10/22 03:19:53;;;;;;;3.00;2.70;;;9.10;99.90;;;;;;5041530;28;20578;-66
2023/10/22 03:22:19;;;;;;;2.90;2.60;;;9.10;99.90;;;;;;5054456;28;20159;-63
2023/10/22 03:24:55;;;;;;;4.60;2.87;;;9.20;99.90;;;;;;5053749;28;20414;-63
2023/10/22 03:27:21;;;;;;;4.60;2.30;;;9.20;99.90;;;;;;5053203;28;20590;-63
2023/10/22 03:29:46;;;;;;;3.00;2.43;;;9.20;99.90;;;;;;5053665;28;20426;-65
2023/10/22 03:32:12;;;;;;;4.30;2.83;;;9.20;99.90;;;;;;5054389;28;20376;-63
2023/10/22 03:34:38;;;;;;;2.70;2.50;;;9.20;99.90;;;;;;5051919;28;20577;-63
2023/10/22 03:37:08;;;;;;;3.20;3.00;;;9.30;99.90;;;;;;5053795;28;20191;-63
2023/10/22 03:39:36;;;;;;;5.30;2.77;;;9.30;99.90;;;;;;5053500;28;20254;-63
2023/10/22 03:42:02;;;;;;;2.70;2.00;;;9.30;99.90;;;;;;5054202;28;20377;-64
2023/10/22 03:44:29;;;;;;;5.00;3.73;;;9.30;99.90;;;;;;5053824;28;20434;-64
2023/10/22 03:46:55;;;;;;;8.83;2.83;;;9.30;99.90;;;;;;5053579;28;20392;-63
2023/10/22 03:49:20;;;;;;;3.53;2.60;;;9.30;99.90;;;;;;5052264;28;20876;-63
2023/10/22 03:51:46;;;;;;;4.60;2.90;;;9.30;99.90;;;;;;5052974;28;20541;-63
2023/10/22 03:54:12;;;;;;;3.20;2.47;;;9.30;99.90;;;;;;5053671;28;20543;-64
2023/10/22 03:56:38;;;;;;;3.73;2.97;;;9.30;99.90;;;;;;5050695;28;20804;-63
2023/10/22 03:59:03;;;;;;;2.83;2.63;;;9.30;99.90;;;;;;5053930;28;20246;-63
2023/10/22 04:01:29;;;;;;;2.93;2.63;;;9.40;99.90;;;;;;5053560;28;20178;-63
2023/10/22 04:03:55;;;;;;;2.67;2.47;;;9.30;99.90;;;;;;5052707;28;20175;-64
2023/10/22 04:06:20;;;;;;;5.83;2.87;;;9.30;99.90;;;;;;5047672;28;20210;-66
2023/10/22 04:08:46;;;;;;;2.80;2.60;;;9.30;99.90;;;;;;5033798;28;20536;-64
2023/10/22 04:11:12;;;;;;;4.70;3.10;;;9.30;99.90;;;;;;5033828;28;20255;-63
2023/10/22 04:13:38;;;;;;;3.80;3.50;;;9.30;99.90;;;;;;5033592;28;20171;-64
2023/10/22 04:16:04;;;;;;;2.50;2.40;;;9.30;99.90;;;;;;5032824;28;20210;-63
2023/10/22 04:18:29;;;;;;;5.43;3.00;;;9.30;99.90;;;;;;5051732;28;20623;-64
2023/10/22 04:20:55;;;;;;;4.00;3.17;;;9.30;99.90;;;;;;5053515;28;20467;-63
2023/10/22 04:23:21;;;;;;;3.00;2.80;;;9.30;99.90;;;;;;5043445;28;20680;-66
2023/10/22 04:25:46;;;;;;;3.70;2.90;;;9.30;99.90;;;;;;5032789;28;20180;-63
2023/10/22 04:28:15;;;;;;;3.40;3.10;;;9.30;99.90;;;;;;5033500;28;20174;-63
2023/10/22 04:30:48;;;;;;;3.93;3.00;;;9.30;99.90;;;;;;5033226;28;20168;-64
2023/10/22 04:33:14;;;;;;;3.30;3.03;;;9.30;99.90;;;;;;5031856;28;20446;-63
2023/10/22 04:35:39;;;;;;;3.10;2.87;;;9.30;99.90;;;;;;5032520;28;20493;-63
2023/10/22 04:38:05;;;;;;;4.23;3.27;;;9.30;99.90;;;;;;5033489;28;20200;-63
2023/10/22 04:40:35;;;;;;;2.73;2.53;;;9.30;99.90;;;;;;5033146;28;20673;-64
2023/10/22 04:43:01;;;;;;;4.97;2.90;;;9.30;99.90;;;;;;5036858;28;20171;-63
2023/10/22 04:45:27;;;;;;;4.70;2.83;;;9.30;99.90;;;;;;5052449;28;20397;-63
2023/10/22 04:47:57;;;;;;;3.30;2.60;;;9.30;99.90;;;;;;5051811;28;20764;-65
2023/10/22 04:50:24;;;;;;;4.70;3.20;;;9.30;99.90;;;;;;5053106;28;20481;-65
2023/10/22 04:52:50;;;;;;;4.50;3.10;;;9.20;99.90;;;;;;5048737;28;21019;-64
2023/10/22 04:55:16;;;;;;;3.33;2.63;;;9.20;99.90;;;;;;5032287;28;20584;-63
2023/10/22 04:57:42;;;;;;;4.00;2.87;;;9.30;99.90;;;;;;5033134;28;20913;-63
2023/10/22 05:00:10;;;;;;;9.47;3.27;;;9.30;99.90;;;;;;5031269;28;20179;-63
2023/10/22 05:02:36;;;;;;;8.00;3.20;;;9.30;99.90;;;;;;5052933;28;20182;-63
2023/10/22 05:05:02;;;;;;;2.93;2.73;;;9.20;99.90;;;;;;5052078;28;20439;-63
2023/10/22 05:07:28;;;;;;;2.83;2.53;;;9.20;99.90;;;;;;5052986;28;20411;-63
2023/10/22 05:09:54;;;;;;;3.03;2.67;;;9.20;99.90;;;;;;5052747;28;20413;-63
2023/10/22 05:12:19;;;;;;;3.20;2.90;;;9.20;99.90;;;;;;5039682;28;20210;-64
2023/10/22 05:14:45;;;;;;;3.83;2.40;;;9.20;99.90;;;;;;5043271;28;20218;-75
2023/10/22 05:17:11;;;;;;;3.10;2.60;;;9.20;99.90;;;;;;5051462;28;20233;-63
2023/10/22 05:19:36;;;;;;;4.00;2.93;;;9.20;99.90;;;;;;5052786;28;20163;-63
2023/10/22 05:22:04;;;;;;;4.50;3.00;;;9.20;99.90;;;;;;5043174;28;20221;-63
2023/10/22 05:24:30;;;;;;;3.53;3.23;;;9.20;99.90;;;;;;5052444;28;20167;-75
2023/10/22 05:26:56;;;;;;;4.70;2.50;;;9.20;99.90;;;;;;5052382;28;20481;-64
2023/10/22 05:29:22;;;;;;;3.20;2.93;;;9.20;99.90;;;;;;5052683;28;20540;-63
2023/10/22 05:31:49;;;;;;;3.73;2.67;;;9.20;99.90;;;;;;5039283;28;20183;-63
2023/10/22 05:34:14;;;;;;;2.87;2.63;;;9.20;99.90;;;;;;5039196;28;20680;-63
2023/10/22 05:36:40;;;;;;;7.63;3.10;;;9.10;99.90;;;;;;5050444;28;20540;-63
2023/10/22 05:39:06;;;;;;;3.17;2.80;;;9.10;99.90;;;;;;5052507;28;20173;-64
2023/10/22 05:41:31;;;;;;;3.93;3.63;;;9.10;99.90;;;;;;5043514;28;20628;-63
2023/10/22 05:44:01;;;;;;;2.60;2.40;;;9.10;99.90;;;;;;5032791;28;20164;-64
2023/10/22 05:46:36;;;;;;;4.37;3.23;;;9.10;99.90;;;;;;5031775;28;20226;-62
2023/10/22 05:49:03;;;;;;;2.50;2.40;;;9.00;99.90;;;;;;5032621;28;20489;-63
2023/10/22 05:51:29;;;;;;;2.80;2.60;;;9.00;99.90;;;;;;5032206;28;20484;-63
2023/10/22 05:53:55;;;;;;;3.93;2.50;;;9.00;99.90;;;;;;5032741;28;20384;-62
2023/10/22 05:56:23;;;;;;;3.10;2.67;;;9.00;99.90;;;;;;5031778;28;20610;-62
2023/10/22 05:58:49;;;;;;;2.70;2.50;;;9.00;99.90;;;;;;5033728;28;20182;-62
2023/10/22 06:01:14;;;;;;;2.77;2.57;;;9.00;99.90;;;;;;5038108;28;20419;-65
2023/10/22 06:03:40;;;;;;;3.07;2.83;;;9.00;99.90;;;;;;5048511;28;20204;-64
2023/10/22 06:06:06;;;;;;;5.07;2.83;;;9.00;99.90;;;;;;5036811;28;20260;-64
2023/10/22 06:08:31;;;;;;;2.77;2.57;;;9.00;99.90;;;;;;5036310;28;20179;-64
2023/10/22 06:10:58;;;;;;;5.17;3.57;;;9.00;99.90;;;;;;5050302;28;20193;-63
2023/10/22 06:13:23;;;;;;;3.93;2.67;;;9.00;99.90;;;;;;5055974;28;20574;-63
2023/10/22 06:15:55;;;;;;;3.10;2.43;;;9.00;99.90;;;;;;5054749;28;20514;-63
2023/10/22 06:18:20;;;;;;;3.60;2.80;;;9.10;99.90;;;;;;5056033;28;20249;-63
2023/10/22 06:20:46;;;;;;;2.83;2.57;;;9.10;99.90;;;;;;5041619;28;20496;-63
2023/10/22 06:23:12;;;;;;;5.30;2.80;;;9.10;99.90;;;;;;5035987;28;20178;-63
2023/10/22 06:25:37;;;;;;;4.07;2.90;;;9.10;99.90;;;;;;5034686;28;20254;-63
2023/10/22 06:28:03;;;;;;;4.60;2.67;;;9.10;99.90;;;;;;5035863;28;20535;-63
2023/10/22 06:30:29;;;;;;;3.67;2.60;;;9.20;99.90;;;;;;5045566;28;20198;-63
2023/10/22 06:32:57;;;;;;;3.37;3.07;;;9.20;99.90;;;;;;5055702;28;20189;-63
2023/10/22 06:35:26;;;;;;;2.97;2.70;;;9.20;99.90;;;;;;5054440;28;20907;-63
2023/10/22 06:37:51;;;;;;;2.60;2.40;;;9.30;99.90;;;;;;5055452;28;20421;-63
2023/10/22 06:40:18;;;;;;;2.93;2.73;;;9.30;99.90;;;;;;5046909;28;20764;-63
2023/10/22 06:42:44;;;;;;;6.13;2.63;;;9.40;99.90;;;;;;5035546;28;20178;-63
2023/10/22 06:45:10;;;;;;;2.60;2.40;;;9.40;99.90;;;;;;5034261;28;20397;-63
2023/10/22 06:47:37;;;;;;;6.13;3.57;;;9.50;99.90;;;;;;5043731;28;20560;-64
2023/10/22 06:50:08;;;;;;;2.97;2.77;;;9.60;99.90;;;;;;5055240;28;20827;-65
2023/10/22 06:52:34;;;;;;;5.00;3.03;;;9.60;99.90;;;;;;5055348;28;20478;-64
2023/10/22 06:55:00;;;;;;;5.20;2.80;;;9.70;99.90;;;;;;5054131;28;20518;-63
2023/10/22 06:57:27;;;;;;;3.40;2.47;;;9.70;99.90;;;;;;5042543;28;20988;-64
2023/10/22 06:59:56;;;;;;;2.50;2.30;;;9.80;99.90;;;;;;5035225;28;20408;-63
2023/10/22 07:02:23;;;;;;;3.47;2.70;;;9.80;99.90;;;;;;5034840;28;20405;-63
2023/10/22 07:04:53;;;;;;;4.80;2.17;;;9.80;99.90;;;;;;5040452;28;20451;-63
2023/10/22 07:07:19;;;;;;;4.80;2.87;;;9.80;99.90;;;;;;5039683;28;20436;-63
2023/10/22 07:09:45;;;;;;;4.33;2.60;;;9.80;99.90;;;;;;5033019;28;20395;-66
2023/10/22 07:12:11;;;;;;;4.20;2.57;;;9.80;99.90;;;;;;5033344;28;20741;-64
2023/10/22 07:14:36;;;;;;;3.60;2.73;;;9.80;99.90;;;;;;5033784;28;20185;-64
2023/10/22 07:17:02;;;;;;;3.80;2.50;;;9.80;99.90;;;;;;5050288;28;20198;-64
2023/10/22 07:19:28;;;;;;;4.30;2.13;;;9.90;99.90;;;;;;5033827;28;20579;-64
2023/10/22 07:21:54;;;;;;;2.40;2.07;;;9.90;99.90;;;;;;5034489;28;20380;-63
2023/10/22 07:24:20;;;;;;;2.80;2.50;;;9.90;99.90;;;;;;5032892;28;20172;-65
2023/10/22 07:26:46;;;;;;;10.10;3.30;;;9.90;99.90;;;;;;5034146;28;20474;-63
2023/10/22 07:29:12;;;;;;;4.13;2.77;;;10.10;99.90;;;;;;5034673;28;20409;-64
2023/10/22 07:31:38;;;;;;;8.13;2.60;;;10.10;99.90;;;;;;5034376;28;20172;-64
2023/10/22 07:34:04;;;;;;;5.33;3.67;;;10.10;99.90;;;;;;5044005;28;20220;-63
2023/10/22 07:36:30;;;;;;;5.80;3.17;;;10.20;99.90;;;;;;5053459;28;20434;-63
2023/10/22 07:38:56;;;;;;;3.70;2.40;;;10.30;99.90;;;;;;5042083;28;20433;-63
2023/10/22 07:41:22;;;;;;;3.27;2.60;;;10.30;99.90;;;;;;5034221;28;20172;-63
2023/10/22 07:43:48;;;;;;;3.30;2.10;;;10.40;99.90;;;;;;5034412;28;20186;-64
2023/10/22 07:46:15;;;;;;;2.10;1.90;;;10.40;99.90;;;;;;5033323;28;20885;-63
2023/10/22 07:48:42;;;;;;;2.60;2.40;;;10.50;99.90;;;;;;5041581;28;20182;-64
2023/10/22 07:51:11;;;;;;;4.30;3.33;;;10.50;99.90;;;;;;5054037;28;20406;-67
2023/10/22 07:53:36;;;;;;;6.20;2.80;;;10.60;99.90;;;;;;5054199;28;20886;-63
2023/10/22 07:56:03;;;;;;;5.23;2.80;;;10.70;99.90;;;;;;5051680;28;20522;-64
2023/10/22 07:58:29;;;;;;;3.53;2.27;;;10.70;99.90;;;;;;5049557;28;20182;-64
2023/10/22 08:00:55;;;;;;;6.70;2.27;;;10.80;99.90;;;;;;5052770;28;20417;-64
2023/10/22 08:03:20;;;;;;;2.83;2.50;;;10.90;99.90;;;;;;5054040;28;20647;-64
2023/10/22 08:05:46;;;;;;;3.13;2.43;;;10.90;99.90;;;;;;5051913;28;20647;-64
2023/10/22 08:08:12;;;;;;;2.40;2.20;;;10.90;99.90;;;;;;5051934;28;20552;-64
2023/10/22 08:10:37;;;;;;;2.17;1.70;;;11.00;99.90;;;;;;5053706;28;20175;-63
2023/10/22 08:13:03;;;;;;;6.60;2.10;;;11.00;99.90;;;;;;5053532;28;20204;-63
2023/10/22 08:15:28;;;;;;;4.70;2.67;;;11.10;99.90;;;;;;5052753;28;20328;-63
2023/10/22 08:17:54;;;;;;;3.17;1.70;;;11.20;99.90;;;;;;5053450;28;20539;-67
2023/10/22 08:20:20;;;;;;;4.30;2.27;;;11.30;99.90;;;;;;5051045;28;20171;-64
2023/10/22 08:22:46;;;;;;;2.73;2.20;;;11.40;99.90;;;;;;5033346;28;20179;-63
2023/10/22 08:25:12;;;;;;;4.13;2.17;;;11.40;99.90;;;;;;5032799;28;20171;-64
2023/10/22 08:27:37;;;;;;;3.23;2.90;;;11.50;99.90;;;;;;5033498;28;20401;-63
2023/10/22 08:30:04;;;;;;;4.30;2.27;;;11.50;99.90;;;;;;5033421;28;20175;-63
2023/10/22 08:32:32;;;;;;;4.33;2.50;;;11.60;99.90;;;;;;5032808;28;20229;-65
2023/10/22 08:34:58;;;;;;;2.13;1.93;;;11.60;99.90;;;;;;5032596;28;20454;-63
2023/10/22 08:37:24;;;;;;;2.20;2.10;;;11.80;99.90;;;;;;5033480;28;20405;-63
2023/10/22 08:39:50;;;;;;;4.43;1.97;;;11.80;99.90;;;;;;5033283;28;20494;-63
2023/10/22 08:42:22;;;;;;;1.87;1.77;;;11.90;99.90;;;;;;5047829;28;20201;-64
2023/10/22 08:44:49;;;;;;;7.17;2.53;;;11.80;93.80;;;;;;5032169;28;20186;-64
2023/10/22 08:47:16;;;;;;;2.60;2.27;;;11.90;81.90;;;;;;5033090;28;20460;-64
2023/10/22 08:49:42;;;;;;;8.10;2.37;;;11.90;68.00;;;;;;5033418;28;20866;-63
2023/10/22 08:52:09;;;;;;;4.90;2.10;;;12.00;48.80;;;;;;5032623;28;20436;-65
2023/10/22 08:54:38;;;;;;;2.20;2.00;;;12.00;34.00;;;;;;5030929;28;20789;-63
2023/10/22 08:57:04;;;;;;;2.47;2.27;;;12.00;9.70;;;;;;5031585;28;20846;-63
2023/10/22 08:59:33;;;;;;;2.70;1.77;;;12.00;1.00;;;;;;5033322;28;20416;-63
2023/10/22 09:02:06;;;;;;;9.17;2.60;;;12.10;1.00;;;;;;5032736;28;20453;-63
2023/10/22 09:04:32;;;;;;;3.33;2.13;;;12.10;1.00;;;;;;5032367;28;20380;-75
2023/10/22 09:06:58;;;;;;;2.33;1.97;;;12.10;1.00;;;;;;5032826;28;20436;-63
2023/10/22 09:09:28;;;;;;;2.60;1.87;;;12.10;1.00;;;;;;5031811;28;20461;-64
2023/10/22 09:11:55;;;;;;;3.20;2.30;;;12.20;1.00;;;;;;5043092;28;20647;-63
2023/10/22 09:14:22;;;;;;;3.10;1.43;;;12.20;1.00;;;;;;5053065;28;20525;-63
2023/10/22 09:16:48;;;;;;;4.20;2.10;;;12.30;1.00;;;;;;5051735;28;20453;-66
2023/10/22 09:19:14;;;;;;;3.23;1.67;;;12.30;1.00;;;;;;5053086;28;20421;-63
2023/10/22 09:21:44;;;;;;;3.67;1.80;;;12.40;1.00;;;;;;5052102;28;20929;-63
2023/10/22 09:24:11;;;;;;;4.77;1.93;;;12.50;1.00;;;;;;5048078;28;20233;-63
2023/10/22 09:26:46;;;;;;;2.87;2.40;;;12.50;1.00;;;;;;5031898;28;20449;-63
2023/10/22 09:29:12;;;;;;;4.20;2.03;;;12.60;1.00;;;;;;5032991;28;20405;-63
2023/10/22 09:31:38;;;;;;;3.80;2.17;;;12.60;1.00;;;;;;5032854;28;20410;-63
2023/10/22 09:34:06;;;;;;;5.93;2.27;;;12.60;1.00;;;;;;5034199;28;20174;-63
2023/10/22 09:36:50;;;;;;;2.03;1.93;;;12.60;1.00;;;;;;5035959;28;20435;-64
2023/10/22 09:39:42;;;;;;;2.77;1.80;;;12.60;1.00;;;;;;5036740;28;20418;-62
2023/10/22 09:42:10;;;;;;;4.00;2.67;;;12.70;1.00;;;;;;5036314;28;20468;-63
2023/10/22 09:44:40;;;;;;;2.70;1.70;;;12.70;1.00;;;;;;5040384;28;20921;-63
2023/10/22 09:47:07;;;;;;;3.70;1.90;;;12.70;1.00;;;;;;5043791;28;20481;-64
2023/10/22 09:49:35;;;;;;;3.43;2.30;;;12.80;1.00;;;;;;5036710;28;20406;-63
2023/10/22 09:52:02;;;;;;;4.73;2.47;;;12.90;1.00;;;;;;5036650;28;20456;-63
2023/10/22 09:54:36;;;;;;;2.57;2.00;;;13.00;1.00;;;;;;5036083;28;20437;-63
2023/10/22 09:57:07;;;;;;;1.87;1.67;;;13.00;1.00;;;;;;5034999;28;20537;-63
2023/10/22 09:59:34;;;;;;;3.53;1.93;;;13.00;1.00;;;;;;5038547;28;20402;-63
2023/10/22 10:02:00;;;;;;;1.43;1.33;;;13.00;1.00;;;;;;5042663;28;20445;-63
2023/10/22 10:04:26;;;;;;;3.73;1.90;;;13.00;1.00;;;;;;5054743;28;20368;-63
2023/10/22 10:06:56;;;;;;;7.67;2.80;;;13.00;1.00;;;;;;5053043;28;20429;-66
2023/10/22 10:09:24;;;;;;;1.80;1.70;;;13.00;1.00;;;;;;5055286;28;20583;-63
2023/10/22 10:11:51;;;;;;;2.03;1.93;;;13.00;1.00;;;;;;5056014;28;20368;-65
2023/10/22 10:14:35;;;;;;;2.60;2.40;;;12.90;1.00;;;;;;5055999;28;20840;-63
2023/10/22 10:17:02;;;;;;;2.53;1.80;;;12.90;1.00;;;;;;5045666;28;20454;-63
2023/10/22 10:19:27;;;;;;;1.77;1.67;;;12.90;1.00;;;;;;5036001;28;20373;-63
2023/10/22 10:21:53;;;;;;;2.13;2.03;;;12.80;1.00;;;;;;5034548;28;20414;-66
2023/10/22 10:24:27;;;;;;;5.63;2.27;;;12.80;1.00;;;;;;5035876;28;20168;-63
2023/10/22 10:26:56;;;;;;;1.80;1.70;;;12.70;1.00;;;;;;5046773;28;20413;-64
2023/10/22 10:29:34;;;;;;;2.53;2.13;;;12.70;1.00;;;;;;5035681;28;20395;-64
2023/10/22 10:32:15;;;;;;;2.13;1.90;;;12.60;1.00;;;;;;5035745;28;20409;-63
2023/10/22 10:34:47;;;;;;;7.63;2.57;;;12.50;1.00;;;;;;5034673;28;20381;-63
2023/10/22 10:37:20;;;;;;;2.10;1.90;;;12.50;1.00;;;;;;5039664;28;20481;-65
2023/10/22 10:39:50;;;;;;;3.57;2.10;;;12.30;1.00;;;;;;5035505;28;20435;-63
2023/10/22 10:42:31;;;;;;;3.10;2.13;;;12.30;1.00;;;;;;5035651;28;20398;-63
2023/10/22 10:45:02;;;;;;;2.83;2.63;;;12.30;1.00;;;;;;5034374;28;20402;-63
2023/10/22 10:47:36;;;;;;;2.53;2.13;;;12.30;1.00;;;;;;5034926;28;20417;-64
2023/10/22 10:50:06;;;;;;;4.57;2.23;;;12.20;1.00;;;;;;5034075;28;20972;-63
2023/10/22 10:52:38;;;;;;;2.70;2.13;;;12.20;1.00;;;;;;5035327;28;20513;-64
2023/10/22 10:55:15;;;;;;;2.77;2.57;;;12.20;1.00;;;;;;5034467;28;20416;-63
2023/10/22 10:57:46;;;;;;;7.10;2.63;;;12.10;1.00;;;;;;5045133;28;20452;-67
2023/10/22 11:00:26;;;;;;;2.57;2.33;;;12.10;1.00;;;;;;5046933;28;20401;-63
2023/10/22 11:02:54;;;;;;;8.00;2.07;;;12.10;1.00;;;;;;5034827;28;20429;-63
2023/10/22 11:05:40;;;;;;;5.20;3.70;;;12.10;1.00;;;;;;5034282;28;20455;-63
2023/10/22 11:08:15;;;;;;;5.00;2.77;;;12.10;21.10;;;;;;5035018;28;20381;-65
2023/10/22 11:10:41;;;;;;;2.20;2.10;;;12.10;34.10;;;;;;5040337;28;20432;-64
2023/10/22 11:13:08;;;;;;;2.30;2.10;;;12.10;59.90;;;;;;5054909;28;20372;-63
2023/10/22 11:15:36;;;;;;;2.80;2.60;;;12.00;82.00;;;;;;5053859;28;20453;-63
2023/10/22 11:18:08;;;;;;;2.90;2.70;;;12.00;95.50;;;;;;5054600;28;20448;-63
2023/10/22 11:20:34;;;;;;;2.70;2.50;;;12.00;99.90;;;;;;5044433;28;21017;-63
2023/10/22 11:23:00;;;;;;;3.37;2.70;;;12.10;99.90;;;;;;5034749;28;20425;-63
2023/10/22 11:25:28;;;;;;;2.63;2.03;;;12.10;99.90;;;;;;5032752;28;20481;-64
2023/10/22 11:27:54;;;;;;;2.70;2.50;;;12.10;99.90;;;;;;5034492;28;20422;-64
2023/10/22 11:30:39;;;;;;;2.47;2.27;;;12.10;99.90;;;;;;5034368;28;20774;-63
2023/10/22 11:33:10;;;;;;;2.53;2.33;;;12.10;99.90;;;;;;5034693;28;20837;-65
2023/10/22 11:35:37;;;;;;;5.90;2.40;;;12.10;99.90;;;;;;5033575;28;21135;-64
2023/10/22 11:38:04;;;;;;;1.73;1.63;;;12.10;99.90;;;;;;5034404;28;20434;-63
2023/10/22 11:40:36;;;;;;;2.60;2.40;;;12.10;99.90;;;;;;5033991;28;20423;-65
2023/10/22 11:43:24;;;;;;;2.83;2.40;;;12.10;99.90;;;;;;5034425;28;20379;-63
2023/10/22 11:45:54;;;;;;;2.63;2.43;;;12.10;99.90;;;;;;5031905;28;20395;-63
2023/10/22 11:48:21;;;;;;;5.20;2.27;;;12.10;99.90;;;;;;5034361;28;20914;-63
2023/10/22 11:50:56;;;;;;;5.63;2.60;;;12.10;99.90;;;;;;5042238;28;20436;-63
2023/10/22 11:53:22;;;;;;;3.40;2.40;;;12.20;99.90;;;;;;5054124;28;20401;-62
2023/10/22 11:55:48;;;;;;;2.50;2.30;;;12.20;99.90;;;;;;5050264;28;20507;-63
2023/10/22 11:58:18;;;;;;;4.70;2.10;;;12.20;99.90;;;;;;5052358;28;20409;-63
2023/10/22 12:00:45;;;;;;;2.30;2.20;;;12.30;99.90;;;;;;5053637;28;20801;-63
2023/10/22 12:03:10;;;;;;;3.37;2.33;;;12.40;99.90;;;;;;5049746;28;20746;-63
2023/10/22 12:05:36;;;;;;;3.50;1.73;;;12.40;99.90;;;;;;5035253;28;20409;-63
2023/10/22 12:08:02;;;;;;;3.30;2.27;;;12.40;99.90;;;;;;5032684;28;20202;-63
2023/10/22 12:10:28;;;;;;;1.97;1.87;;;12.40;99.90;;;;;;5033800;28;20174;-63
2023/10/22 12:12:53;;;;;;;3.53;2.00;;;12.50;99.90;;;;;;5036085;28;20198;-63
2023/10/22 12:15:19;;;;;;;2.07;1.80;;;12.50;99.90;;;;;;5046174;28;20205;-63
2023/10/22 12:17:45;;;;;;;5.60;1.87;;;12.50;99.90;;;;;;5052886;28;20202;-63
2023/10/22 12:20:10;;;;;;;2.20;1.60;;;12.50;99.90;;;;;;5044419;28;20185;-63
2023/10/22 12:22:36;;;;;;;2.30;1.60;;;12.50;99.90;;;;;;5034477;28;20182;-64
2023/10/22 12:25:03;;;;;;;1.97;1.60;;;12.50;99.90;;;;;;5032939;28;20480;-63
2023/10/22 12:27:31;;;;;;;2.13;1.97;;;12.50;99.90;;;;;;5033411;28;20209;-63
2023/10/22 12:29:57;;;;;;;2.20;2.10;;;12.50;99.90;;;;;;5033704;28;20374;-64
2023/10/22 12:32:22;;;;;;;1.80;1.70;;;12.50;99.90;;;;;;5032163;28;20438;-63
2023/10/22 12:34:48;;;;;;;1.50;1.40;;;12.50;99.90;;;;;;5032615;28;20270;-63
2023/10/22 12:37:14;;;;;;;2.40;2.20;;;12.50;99.90;;;;;;5032314;28;20192;-64
2023/10/22 12:39:41;;;;;;;2.73;1.90;;;12.40;99.90;;;;;;5033298;28;20175;-63
2023/10/22 12:42:07;;;;;;;2.07;1.67;;;12.30;99.90;;;;;;5033273;28;20183;-65
2023/10/22 12:44:32;;;;;;;1.90;1.80;;;12.30;99.90;;;;;;5031325;28;20373;-71
2023/10/22 12:46:59;;;;;;;2.00;1.90;;;12.30;99.90;;;;;;5036986;28;20198;-67
2023/10/22 12:49:25;;;;;;;2.17;1.97;;;12.30;99.90;;;;;;5040629;28;20168;-64
2023/10/22 12:51:51;;;;;;;2.00;1.90;;;12.30;99.90;;;;;;5049950;28;20538;-63
2023/10/22 12:54:17;;;;;;;1.93;1.83;;;12.30;99.90;;;;;;5033286;28;20636;-64
2023/10/22 12:56:42;;;;;;;2.60;2.40;;;12.20;99.90;;;;;;5039674;28;20465;-64
2023/10/22 12:59:08;;;;;;;3.40;2.37;;;12.10;99.90;;;;;;5052493;28;20175;-64